createdAt,value
2016-07-13T00:00:09.710Z,15.1
2016-07-13T00:01:09.557Z,15.02
2016-07-13T00:02:09.714Z,15.01
2016-07-13T00:03:09.648Z,15.04
2016-07-13T00:04:09.648Z,15.02
2016-07-13T00:05:09.750Z,15
2016-07-13T00:06:09.732Z,15.01
2016-07-13T00:07:09.579Z,14.89
2016-07-13T00:08:09.585Z,15
2016-07-13T00:09:09.655Z,14.95
2016-07-13T00:10:09.663Z,14.98
2016-07-13T00:11:09.677Z,15.01
2016-07-13T00:12:09.666Z,14.93
2016-07-13T00:13:09.754Z,14.94
2016-07-13T00:14:09.741Z,14.98
2016-07-13T00:15:09.623Z,15
2016-07-13T00:16:09.681Z,14.98
2016-07-13T00:17:09.679Z,15
2016-07-13T00:18:09.624Z,14.94
2016-07-13T00:19:09.839Z,15.02
2016-07-13T00:20:09.780Z,14.95
2016-07-13T00:21:09.687Z,15.01
2016-07-13T00:22:09.703Z,14.97
2016-07-13T00:23:09.688Z,15
2016-07-13T00:24:09.716Z,15
2016-07-13T00:25:09.746Z,14.95
2016-07-13T00:26:09.710Z,14.86
2016-07-13T00:27:09.726Z,14.9
2016-07-13T00:28:09.741Z,14.89
2016-07-13T00:29:09.709Z,14.87
2016-07-13T00:30:09.641Z,15
2016-07-13T00:31:09.792Z,14.82
2016-07-13T00:32:09.718Z,14.93
2016-07-13T00:35:17.741Z,14.87
2016-07-13T00:35:24.631Z,14.94
2016-07-13T00:36:24.623Z,14.97
2016-07-13T00:37:24.712Z,14.87
2016-07-13T00:38:24.637Z,14.86
2016-07-13T00:39:24.562Z,14.9
2016-07-13T00:40:24.593Z,14.89
2016-07-13T00:41:24.653Z,14.85
2016-07-13T00:42:24.642Z,14.83
2016-07-13T00:43:24.725Z,14.9
2016-07-13T00:44:24.649Z,15.15
2016-07-13T00:45:24.667Z,14.89
2016-07-13T00:46:24.645Z,14.86
2016-07-13T00:47:24.750Z,14.86
2016-07-13T00:48:24.751Z,14.89
2016-07-13T00:49:24.663Z,14.82
2016-07-13T00:50:24.680Z,14.77
2016-07-13T00:51:24.602Z,14.74
2016-07-13T00:52:24.888Z,14.71
2016-07-13T00:53:24.766Z,14.77
2016-07-13T00:54:24.686Z,14.8
2016-07-13T00:55:24.692Z,14.75
2016-07-13T00:56:24.682Z,14.74
2016-07-13T00:57:24.692Z,14.67
2016-07-13T00:58:24.718Z,14.71
2016-07-13T00:59:24.614Z,14.74
2016-07-13T01:00:24.697Z,14.71
2016-07-13T01:01:24.622Z,14.67
2016-07-13T01:02:24.712Z,14.66
2016-07-13T01:03:24.706Z,14.63
2016-07-13T01:04:24.643Z,14.67
2016-07-13T01:05:24.730Z,14.7
2016-07-13T01:06:24.812Z,14.56
2016-07-13T01:07:24.640Z,14.59
2016-07-13T01:08:24.736Z,14.61
2016-07-13T01:09:24.726Z,14.59
2016-07-13T01:10:24.737Z,14.53
2016-07-13T01:11:24.735Z,14.66
2016-07-13T01:12:24.821Z,14.64
2016-07-13T01:13:24.753Z,14.59
2016-07-13T01:14:24.739Z,14.57
2016-07-13T01:15:24.752Z,14.63
2016-07-13T01:16:24.754Z,14.66
2016-07-13T01:17:24.758Z,14.61
2016-07-13T01:18:24.748Z,14.7
2016-07-13T01:19:24.757Z,14.6
2016-07-13T01:20:24.679Z,14.64
2016-07-13T01:21:24.753Z,14.67
2016-07-13T01:22:24.837Z,14.52
2016-07-13T01:23:24.692Z,14.6
2016-07-13T01:24:24.696Z,14.52
2016-07-13T01:25:24.691Z,14.69
2016-07-13T01:26:24.859Z,14.53
2016-07-13T01:27:24.773Z,14.57
2016-07-13T01:28:24.867Z,14.6
2016-07-13T01:29:24.777Z,14.57
2016-07-13T01:30:24.861Z,14.53
2016-07-13T01:31:24.787Z,14.57
2016-07-13T01:32:24.783Z,14.59
2016-07-13T01:33:24.795Z,14.59
2016-07-13T01:34:24.722Z,14.57
2016-07-13T01:35:24.734Z,14.63
2016-07-13T01:36:24.882Z,14.57
2016-07-13T01:37:24.873Z,14.53
2016-07-13T01:38:24.808Z,14.61
2016-07-13T01:39:24.875Z,14.56
2016-07-13T01:40:24.820Z,14.59
2016-07-13T01:41:24.821Z,14.57
2016-07-13T01:42:24.735Z,14.52
2016-07-13T01:43:24.739Z,14.6
2016-07-13T01:44:24.891Z,14.6
2016-07-13T01:45:24.752Z,14.53
2016-07-13T01:46:24.828Z,14.48
2016-07-13T01:47:24.825Z,14.46
2016-07-13T01:48:24.829Z,14.49
2016-07-13T01:49:24.925Z,14.53
2016-07-13T01:50:24.925Z,14.48
2016-07-13T01:51:24.924Z,14.44
2016-07-13T01:52:24.945Z,14.49
2016-07-13T01:53:24.766Z,14.44
2016-07-13T01:54:24.862Z,14.44
2016-07-13T01:55:24.922Z,14.44
2016-07-13T01:56:24.855Z,14.39
2016-07-13T01:57:24.868Z,14.44
2016-07-13T01:58:24.876Z,14.49
2016-07-13T01:59:24.801Z,14.42
2016-07-13T02:00:24.861Z,14.49
2016-07-13T02:01:24.859Z,14.42
2016-07-13T02:02:24.863Z,14.41
2016-07-13T02:03:24.793Z,14.41
2016-07-13T02:04:24.877Z,14.41
2016-07-13T02:05:24.956Z,14.38
2016-07-13T02:06:24.886Z,14.44
2016-07-13T02:07:24.808Z,14.34
2016-07-13T02:08:24.897Z,14.33
2016-07-13T02:09:24.896Z,14.34
2016-07-13T02:10:24.817Z,14.41
2016-07-13T02:11:24.819Z,14.39
2016-07-13T02:12:24.910Z,14.27
2016-07-13T02:13:24.964Z,14.36
2016-07-13T02:14:24.893Z,14.41
2016-07-13T02:15:24.992Z,14.39
2016-07-13T02:16:24.843Z,14.31
2016-07-13T02:17:24.843Z,14.41
2016-07-13T02:18:24.845Z,14.39
2016-07-13T02:19:24.933Z,14.28
2016-07-13T02:20:24.926Z,14.3
2016-07-13T02:21:24.937Z,14.27
2016-07-13T02:22:25.011Z,14.21
2016-07-13T02:23:24.929Z,14.21
2016-07-13T02:24:24.951Z,14.16
2016-07-13T02:25:24.876Z,14.09
2016-07-13T02:26:24.884Z,14.06
2016-07-13T02:27:24.939Z,14.05
2016-07-13T02:28:24.955Z,13.95
2016-07-13T02:29:24.891Z,14.02
2016-07-13T02:30:24.961Z,14.02
2016-07-13T02:31:24.896Z,14.02
2016-07-13T02:32:25.028Z,14.01
2016-07-13T02:33:24.887Z,13.97
2016-07-13T02:34:25.038Z,14.27
2016-07-13T02:35:24.958Z,13.91
2016-07-13T02:36:24.987Z,13.91
2016-07-13T02:37:24.971Z,13.97
2016-07-13T02:38:24.974Z,13.91
2016-07-13T02:39:24.985Z,13.86
2016-07-13T02:40:24.914Z,13.9
2016-07-13T02:41:24.902Z,13.88
2016-07-13T02:42:24.921Z,13.87
2016-07-13T02:43:25.053Z,13.84
2016-07-13T02:44:24.916Z,13.81
2016-07-13T02:45:24.984Z,13.75
2016-07-13T02:46:25.065Z,13.68
2016-07-13T02:47:25.005Z,13.72
2016-07-13T02:48:25.011Z,13.7
2016-07-13T02:49:25.016Z,13.79
2016-07-13T02:50:25.080Z,13.76
2016-07-13T02:51:24.936Z,13.75
2016-07-13T02:52:24.925Z,13.75
2016-07-13T02:53:24.943Z,13.66
2016-07-13T02:54:25.024Z,13.73
2016-07-13T02:55:25.018Z,13.73
2016-07-13T02:56:25.034Z,13.7
2016-07-13T02:57:24.941Z,13.65
2016-07-13T02:58:24.962Z,13.76
2016-07-13T02:59:24.951Z,13.76
2016-07-13T03:00:25.056Z,13.69
2016-07-13T03:01:25.045Z,13.7
2016-07-13T03:02:25.045Z,13.68
2016-07-13T03:03:25.058Z,13.68
2016-07-13T03:04:25.053Z,13.62
2016-07-13T03:05:25.036Z,13.65
2016-07-13T03:06:25.052Z,13.6
2016-07-13T03:07:25.069Z,13.62
2016-07-13T03:08:24.988Z,13.66
2016-07-13T03:09:25.077Z,13.63
2016-07-13T03:10:25.141Z,13.62
2016-07-13T03:11:25.063Z,13.65
2016-07-13T03:12:25.002Z,13.63
2016-07-13T03:13:25.075Z,13.62
2016-07-13T03:14:25.067Z,13.57
2016-07-13T03:15:25.002Z,13.54
2016-07-13T03:16:24.991Z,13.55
2016-07-13T03:17:25.172Z,13.57
2016-07-13T03:18:25.156Z,13.54
2016-07-13T03:19:25.089Z,13.53
2016-07-13T03:20:25.091Z,13.47
2016-07-13T03:21:25.095Z,13.58
2016-07-13T03:22:25.150Z,13.57
2016-07-13T03:23:25.102Z,13.57
2016-07-13T03:24:25.101Z,13.53
2016-07-13T03:25:25.183Z,13.58
2016-07-13T03:26:25.035Z,13.6
2016-07-13T03:27:25.104Z,13.57
2016-07-13T03:28:25.039Z,13.58
2016-07-13T03:29:25.187Z,13.58
2016-07-13T03:30:25.129Z,13.58
2016-07-13T03:31:25.134Z,13.63
2016-07-13T03:32:25.120Z,13.58
2016-07-13T03:33:25.058Z,13.57
2016-07-13T03:34:25.191Z,13.55
2016-07-13T03:35:25.242Z,13.58
2016-07-13T03:36:25.136Z,13.65
2016-07-13T03:37:25.142Z,13.47
2016-07-13T03:38:25.160Z,13.57
2016-07-13T03:39:25.145Z,13.57
2016-07-13T03:40:25.226Z,13.58
2016-07-13T03:41:25.145Z,13.63
2016-07-13T03:42:25.069Z,13.6
2016-07-13T03:43:25.100Z,13.58
2016-07-13T03:44:25.245Z,13.63
2016-07-13T03:45:25.220Z,13.58
2016-07-13T03:46:25.073Z,13.58
2016-07-13T03:47:25.178Z,13.57
2016-07-13T03:48:25.094Z,13.65
2016-07-13T03:49:25.177Z,13.7
2016-07-13T03:50:25.182Z,13.62
2016-07-13T03:51:25.127Z,13.65
2016-07-13T03:52:25.176Z,13.62
2016-07-13T03:53:25.281Z,13.68
2016-07-13T03:54:25.215Z,13.7
2016-07-13T03:55:25.806Z,13.66
2016-07-13T03:56:25.301Z,13.68
2016-07-13T03:57:25.210Z,13.7
2016-07-13T03:58:25.316Z,13.73
2016-07-13T03:59:25.218Z,13.75
2016-07-13T04:00:25.137Z,13.73
2016-07-13T04:01:25.198Z,13.73
2016-07-13T04:02:25.201Z,13.69
2016-07-13T04:03:25.221Z,13.73
2016-07-13T04:04:25.151Z,13.76
2016-07-13T04:05:25.213Z,13.88
2016-07-13T04:06:25.293Z,13.75
2016-07-13T04:07:25.228Z,13.79
2016-07-13T04:08:25.215Z,13.79
2016-07-13T04:09:25.225Z,13.75
2016-07-13T04:10:25.303Z,13.75
2016-07-13T04:11:25.162Z,13.72
2016-07-13T04:12:25.324Z,13.75
2016-07-13T04:13:25.156Z,13.75
2016-07-13T04:14:25.169Z,13.72
2016-07-13T04:15:25.325Z,13.76
2016-07-13T04:16:25.252Z,13.73
2016-07-13T04:17:25.265Z,13.7
2016-07-13T04:18:26.070Z,13.73
2016-07-13T04:19:25.252Z,13.7
2016-07-13T04:20:25.274Z,13.78
2016-07-13T04:21:25.353Z,13.78
2016-07-13T04:22:25.191Z,13.73
2016-07-13T04:23:25.297Z,13.75
2016-07-13T04:24:25.269Z,13.78
2016-07-13T04:25:25.293Z,13.73
2016-07-13T04:26:25.290Z,13.75
2016-07-13T04:27:25.341Z,13.7
2016-07-13T04:28:25.279Z,13.66
2016-07-13T04:29:25.224Z,13.72
2016-07-13T04:30:25.280Z,13.68
2016-07-13T04:31:25.369Z,13.73
2016-07-13T04:32:25.312Z,13.73
2016-07-13T04:33:25.304Z,13.76
2016-07-13T04:34:25.298Z,13.76
2016-07-13T04:35:25.303Z,13.75
2016-07-13T04:36:25.398Z,13.76
2016-07-13T04:37:25.232Z,13.86
2016-07-13T04:38:25.225Z,13.78
2016-07-13T04:39:25.391Z,13.69
2016-07-13T04:40:25.313Z,13.75
2016-07-13T04:41:25.388Z,13.76
2016-07-13T04:42:25.390Z,13.78
2016-07-13T04:43:25.327Z,13.83
2016-07-13T04:44:25.394Z,13.79
2016-07-13T04:45:25.321Z,13.83
2016-07-13T04:46:25.248Z,13.86
2016-07-13T04:47:25.330Z,13.79
2016-07-13T04:48:25.280Z,13.86
2016-07-13T04:49:25.330Z,13.9
2016-07-13T04:50:25.453Z,13.87
2016-07-13T04:51:25.340Z,13.86
2016-07-13T04:52:25.342Z,13.76
2016-07-13T04:53:25.324Z,13.79
2016-07-13T04:54:25.361Z,13.84
2016-07-13T04:55:25.404Z,13.88
2016-07-13T04:56:25.347Z,13.81
2016-07-13T04:57:25.437Z,13.95
2016-07-13T04:58:25.303Z,13.86
2016-07-13T04:59:25.298Z,13.86
2016-07-13T05:00:25.368Z,13.84
2016-07-13T05:01:25.480Z,13.97
2016-07-13T05:02:25.394Z,13.84
2016-07-13T05:03:25.402Z,14.01
2016-07-13T05:04:25.308Z,14.03
2016-07-13T05:05:25.381Z,13.97
2016-07-13T05:06:25.465Z,14.12
2016-07-13T05:07:25.386Z,14.02
2016-07-13T05:08:25.314Z,13.99
2016-07-13T05:09:25.395Z,14.05
2016-07-13T05:10:25.488Z,13.97
2016-07-13T05:11:25.353Z,14.03
2016-07-13T05:12:25.411Z,14.05
2016-07-13T05:13:25.404Z,14.09
2016-07-13T05:14:25.436Z,14.02
2016-07-13T05:15:25.410Z,14.08
2016-07-13T05:16:25.323Z,14.08
2016-07-13T05:17:25.419Z,14.05
2016-07-13T05:18:25.507Z,14.15
2016-07-13T05:19:25.493Z,14.15
2016-07-13T05:20:25.428Z,14.24
2016-07-13T05:21:25.424Z,14.26
2016-07-13T05:22:25.347Z,14.33
2016-07-13T05:23:25.438Z,14.26
2016-07-13T05:24:26.579Z,14.21
2016-07-13T05:25:25.426Z,14.24
2016-07-13T05:26:25.361Z,14.15
2016-07-13T05:27:25.527Z,14.21
2016-07-13T05:28:25.368Z,14.24
2016-07-13T05:29:25.375Z,14.19
2016-07-13T05:30:25.451Z,14.24
2016-07-13T05:31:25.449Z,14.27
2016-07-13T05:32:25.386Z,14.15
2016-07-13T05:33:25.383Z,14.23
2016-07-13T05:34:25.485Z,14.21
2016-07-13T05:35:25.469Z,14.23
2016-07-13T05:36:25.395Z,14.3
2016-07-13T05:37:25.476Z,14.28
2016-07-13T05:38:25.559Z,14.27
2016-07-13T05:39:25.560Z,14.33
2016-07-13T05:40:25.467Z,14.24
2016-07-13T05:41:25.425Z,14.48
2016-07-13T05:42:25.507Z,14.38
2016-07-13T05:43:25.565Z,14.45
2016-07-13T05:44:25.493Z,14.3
2016-07-13T05:45:25.507Z,14.3
2016-07-13T05:46:25.416Z,14.34
2016-07-13T05:47:25.494Z,14.36
2016-07-13T05:48:25.512Z,14.41
2016-07-13T05:49:25.500Z,14.38
2016-07-13T05:50:25.553Z,14.39
2016-07-13T05:51:25.586Z,14.42
2016-07-13T05:52:25.525Z,14.41
2016-07-13T05:53:25.535Z,14.49
2016-07-13T05:54:25.440Z,14.41
2016-07-13T05:55:25.508Z,14.44
2016-07-13T05:56:26.173Z,14.34
2016-07-13T05:57:25.527Z,14.48
2016-07-13T05:58:25.515Z,14.51
2016-07-13T05:59:25.466Z,14.51
2016-07-13T06:00:25.594Z,14.51
2016-07-13T06:01:25.531Z,14.49
2016-07-13T06:02:25.551Z,14.57
2016-07-13T06:03:28.492Z,14.57
2016-07-13T06:04:25.646Z,14.56
2016-07-13T06:05:25.650Z,14.6
2016-07-13T06:06:25.571Z,14.46
2016-07-13T06:07:25.498Z,14.59
2016-07-13T06:08:25.552Z,14.7
2016-07-13T06:09:25.644Z,14.71
2016-07-13T06:10:25.503Z,14.77
2016-07-13T06:11:25.547Z,14.86
2016-07-13T06:12:25.594Z,15.12
2016-07-13T06:13:25.654Z,15.16
2016-07-13T06:14:25.592Z,15.12
2016-07-13T06:15:25.634Z,15.22
2016-07-13T06:16:25.779Z,14.98
2016-07-13T06:17:25.538Z,15.16
2016-07-13T06:18:25.597Z,15.22
2016-07-13T06:19:25.592Z,15.34
2016-07-13T06:20:25.549Z,15.51
2016-07-13T06:21:25.604Z,15.33
2016-07-13T06:22:25.603Z,15.31
2016-07-13T06:23:25.492Z,15.37
2016-07-13T06:24:25.510Z,15.44
2016-07-13T06:25:25.497Z,15.62
2016-07-13T06:26:25.520Z,15.75
2016-07-13T06:27:25.728Z,15.74
2016-07-13T06:28:25.684Z,15.83
2016-07-13T06:29:25.615Z,15.77
2016-07-13T06:30:25.718Z,15.98
2016-07-13T06:31:25.534Z,16.16
2016-07-13T06:32:25.621Z,16.17
2016-07-13T06:33:25.554Z,16.27
2016-07-13T06:34:25.649Z,16.16
2016-07-13T06:35:25.621Z,15.92
2016-07-13T06:36:25.669Z,16.1
2016-07-13T06:37:25.653Z,16.25
2016-07-13T06:38:25.667Z,16.44
2016-07-13T06:39:25.713Z,16.22
2016-07-13T06:40:25.734Z,16.17
2016-07-13T06:41:25.648Z,16.29
2016-07-13T06:42:25.732Z,16.26
2016-07-13T06:43:25.755Z,16.22
2016-07-13T06:44:25.741Z,16.18
2016-07-13T06:45:25.791Z,16.13
2016-07-13T06:46:25.770Z,15.83
2016-07-13T06:47:25.594Z,15.93
2016-07-13T06:48:25.684Z,15.92
2016-07-13T06:49:25.708Z,16.07
2016-07-13T06:50:26.183Z,16.07
2016-07-13T06:51:25.760Z,16.21
2016-07-13T06:52:25.804Z,16.27
2016-07-13T06:53:25.761Z,16.27
2016-07-13T06:54:25.747Z,16.39
2016-07-13T06:55:25.700Z,16.4
2016-07-13T06:56:25.702Z,16.59
2016-07-13T06:57:25.721Z,16.7
2016-07-13T06:58:25.623Z,16.94
2016-07-13T06:59:25.812Z,16.87
2016-07-13T07:00:25.785Z,16.54
2016-07-13T07:01:25.641Z,16.63
2016-07-13T07:02:25.637Z,16.65
2016-07-13T07:03:25.720Z,16.72
2016-07-13T07:04:25.644Z,16.9
2016-07-13T07:05:25.814Z,17.21
2016-07-13T07:06:25.808Z,17.39
2016-07-13T07:07:25.824Z,17.38
2016-07-13T07:08:25.783Z,17.39
2016-07-13T07:09:25.675Z,17.15
2016-07-13T07:10:26.346Z,17.21
2016-07-13T07:11:25.673Z,17.3
2016-07-13T07:12:25.749Z,17.43
2016-07-13T07:13:25.753Z,17.58
2016-07-13T07:14:25.779Z,17.57
2016-07-13T07:15:25.854Z,17.47
2016-07-13T07:16:29.688Z,17.36
2016-07-13T07:17:25.677Z,17.22
2016-07-13T07:18:25.781Z,17.15
2016-07-13T07:19:25.834Z,17.03
2016-07-13T07:20:25.865Z,16.76
2016-07-13T07:21:25.857Z,16.91
2016-07-13T07:22:25.788Z,17.05
2016-07-13T07:23:25.789Z,16.92
2016-07-13T07:24:25.795Z,17.05
2016-07-13T07:25:25.743Z,17.03
2016-07-13T07:26:25.847Z,17.31
2016-07-13T07:27:25.811Z,17.47
2016-07-13T07:28:25.872Z,17.45
2016-07-13T07:29:26.445Z,17.65
2016-07-13T07:30:25.799Z,17.4
2016-07-13T07:31:25.884Z,17.25
2016-07-13T07:32:25.923Z,17.42
2016-07-13T07:33:25.725Z,17.43
2016-07-13T07:34:25.810Z,17.65
2016-07-13T07:35:25.828Z,17.88
2016-07-13T07:36:25.818Z,18.06
2016-07-13T07:37:27.058Z,18.35
2016-07-13T07:38:25.814Z,18.72
2016-07-13T07:39:25.844Z,18.41
2016-07-13T07:40:25.887Z,18.51
2016-07-13T07:41:25.844Z,18.17
2016-07-13T07:42:25.785Z,17.73
2016-07-13T07:43:25.914Z,17.68
2016-07-13T07:44:25.827Z,17.58
2016-07-13T07:45:25.837Z,17.54
2016-07-13T07:46:25.930Z,17.77
2016-07-13T07:47:25.841Z,17.79
2016-07-13T07:48:25.969Z,18.02
2016-07-13T07:49:25.865Z,18.16
2016-07-13T07:50:25.864Z,18.5
2016-07-13T07:51:25.774Z,17.99
2016-07-13T07:52:25.779Z,17.71
2016-07-13T07:53:25.883Z,17.55
2016-07-13T07:54:25.944Z,17.76
2016-07-13T07:55:25.901Z,17.86
2016-07-13T07:56:25.953Z,18.26
2016-07-13T07:57:25.981Z,18.51
2016-07-13T07:58:25.916Z,18.57
2016-07-13T07:59:25.881Z,18.27
2016-07-13T08:00:25.890Z,17.98
2016-07-13T08:01:25.922Z,17.95
2016-07-13T08:02:25.930Z,18.05
2016-07-13T08:03:25.936Z,18.49
2016-07-13T08:04:25.823Z,18.56
2016-07-13T08:05:25.981Z,18.47
2016-07-13T08:06:25.962Z,18.47
2016-07-13T08:07:26.006Z,18.57
2016-07-13T08:08:25.875Z,18.56
2016-07-13T08:09:25.860Z,18.26
2016-07-13T08:10:25.985Z,18.26
2016-07-13T08:11:25.921Z,18.45
2016-07-13T08:12:25.952Z,18.17
2016-07-13T08:13:25.863Z,18.1
2016-07-13T08:14:25.972Z,18.24
2016-07-13T08:15:26.179Z,18.5
2016-07-13T08:16:25.947Z,18.82
2016-07-13T08:17:25.974Z,19.32
2016-07-13T08:18:25.945Z,19.31
2016-07-13T08:19:26.087Z,18.82
2016-07-13T08:20:25.934Z,18.51
2016-07-13T08:21:25.884Z,18.29
2016-07-13T08:22:25.958Z,18.49
2016-07-13T08:23:26.012Z,18.5
2016-07-13T08:24:25.983Z,18.56
2016-07-13T08:25:25.925Z,18.49
2016-07-13T08:26:25.881Z,18.56
2016-07-13T08:27:26.051Z,18.59
2016-07-13T08:28:26.054Z,18.57
2016-07-13T08:29:26.311Z,19.05
2016-07-13T08:30:25.916Z,18.82
2016-07-13T08:31:25.979Z,18.78
2016-07-13T08:32:25.936Z,18.82
2016-07-13T08:33:26.095Z,18.65
2016-07-13T08:34:26.023Z,18.56
2016-07-13T08:35:25.958Z,18.31
2016-07-13T08:36:25.914Z,18.61
2016-07-13T08:37:25.945Z,18.34
2016-07-13T08:38:26.050Z,18.57
2016-07-13T08:39:26.108Z,19.02
2016-07-13T08:40:25.996Z,18.82
2016-07-13T08:41:26.048Z,18.9
2016-07-13T08:42:26.013Z,19.07
2016-07-13T08:43:26.061Z,19.45
2016-07-13T08:44:26.076Z,19.74
2016-07-13T08:45:25.958Z,19.95
2016-07-13T08:46:26.165Z,20.34
2016-07-13T08:47:26.154Z,20.54
2016-07-13T08:48:25.996Z,19.85
2016-07-13T08:49:26.083Z,19.95
2016-07-13T08:50:26.059Z,20.3
2016-07-13T08:51:26.172Z,20.41
2016-07-13T08:52:26.168Z,19.19
2016-07-13T08:53:26.176Z,19.09
2016-07-13T08:54:26.123Z,19.53
2016-07-13T08:55:29.383Z,19.87
2016-07-13T08:56:26.058Z,20.41
2016-07-13T08:57:26.075Z,20.83
2016-07-13T08:58:26.063Z,21.12
2016-07-13T08:59:26.142Z,20.94
2016-07-13T09:00:26.074Z,21.16
2016-07-13T09:01:27.320Z,20.88
2016-07-13T09:02:25.996Z,20.66
2016-07-13T09:03:26.118Z,21.09
2016-07-13T09:04:26.829Z,21.33
2016-07-13T09:05:26.136Z,21.38
2016-07-13T09:06:26.095Z,21.8
2016-07-13T09:07:26.167Z,21.31
2016-07-13T09:08:26.033Z,21.43
2016-07-13T09:09:26.191Z,21.15
2016-07-13T09:10:26.181Z,20.91
2016-07-13T09:11:26.211Z,20.96
2016-07-13T09:12:26.041Z,20.88
2016-07-13T09:13:26.014Z,21.36
2016-07-13T09:14:26.194Z,21.38
2016-07-13T09:15:27.817Z,21.13
2016-07-13T09:16:26.114Z,21.34
2016-07-13T09:17:26.281Z,21.16
2016-07-13T09:18:26.040Z,20.93
2016-07-13T09:19:26.198Z,21.18
2016-07-13T09:20:26.064Z,21.18
2016-07-13T09:21:26.048Z,20.68
2016-07-13T09:22:33.669Z,20.44
2016-07-13T09:23:26.245Z,20.63
2016-07-13T09:24:26.069Z,20.48
2016-07-13T09:25:26.381Z,20.54
2016-07-13T09:26:26.227Z,20.15
2016-07-13T09:27:26.255Z,20.02
2016-07-13T09:28:26.245Z,20.04
2016-07-13T09:29:26.158Z,20
2016-07-13T09:30:26.270Z,20.04
2016-07-13T09:31:26.086Z,19.86
2016-07-13T09:32:26.080Z,19.7
2016-07-13T09:33:26.270Z,19.74
2016-07-13T09:34:26.198Z,19.68
2016-07-13T09:35:26.379Z,19.27
2016-07-13T09:36:26.164Z,19.06
2016-07-13T09:37:26.292Z,19.35
2016-07-13T09:38:26.219Z,19.71
2016-07-13T09:39:26.108Z,19.64
2016-07-13T09:40:26.193Z,19.72
2016-07-13T09:41:26.257Z,19.86
2016-07-13T09:42:26.242Z,20
2016-07-13T09:43:26.199Z,20.16
2016-07-13T09:44:26.108Z,20.16
2016-07-13T09:45:26.195Z,19.74
2016-07-13T09:46:26.319Z,19.28
2016-07-13T09:47:26.200Z,19.47
2016-07-13T09:48:26.126Z,19.52
2016-07-13T09:49:26.197Z,19.75
2016-07-13T09:50:26.289Z,19.72
2016-07-13T09:51:26.240Z,20.11
2016-07-13T09:52:26.297Z,20.11
2016-07-13T09:53:26.314Z,20.27
2016-07-13T09:54:26.411Z,20.04
2016-07-13T09:55:27.185Z,20.05
2016-07-13T09:56:26.296Z,20.34
2016-07-13T09:57:26.552Z,20.22
2016-07-13T09:58:26.217Z,20.3
2016-07-13T09:59:26.247Z,20.38
2016-07-13T10:00:26.269Z,20.67
2016-07-13T10:01:26.207Z,20.75
2016-07-13T10:02:26.347Z,20.85
2016-07-13T10:03:26.341Z,20.51
2016-07-13T10:04:26.246Z,21.21
2016-07-13T10:05:26.356Z,21.21
2016-07-13T10:06:26.389Z,20.67
2016-07-13T10:07:26.221Z,20.26
2016-07-13T10:08:26.413Z,20.38
2016-07-13T10:09:26.300Z,20.08
2016-07-13T10:10:26.297Z,20.38
2016-07-13T10:11:26.260Z,20.6
2016-07-13T10:12:26.734Z,20.79
2016-07-13T10:13:26.275Z,21.11
2016-07-13T10:14:26.436Z,20.51
2016-07-13T10:15:26.245Z,20.32
2016-07-13T10:16:26.249Z,20.26
2016-07-13T10:17:26.593Z,20.66
2016-07-13T10:18:26.360Z,21.12
2016-07-13T10:19:26.248Z,21.51
2016-07-13T10:20:26.323Z,21.55
2016-07-13T10:21:26.571Z,22.09
2016-07-13T10:22:26.450Z,21.53
2016-07-13T10:23:26.305Z,21.83
2016-07-13T10:24:26.401Z,21.97
2016-07-13T10:25:26.320Z,22.88
2016-07-13T10:26:26.248Z,22.75
2016-07-13T10:27:26.253Z,22.54
2016-07-13T10:28:26.243Z,21.73
2016-07-13T10:29:27.125Z,22.11
2016-07-13T10:30:26.356Z,21.68
2016-07-13T10:31:26.299Z,21.3
2016-07-13T10:32:26.353Z,21.23
2016-07-13T10:33:26.438Z,21.41
2016-07-13T10:34:26.468Z,21.18
2016-07-13T10:35:26.299Z,21.52
2016-07-13T10:36:26.459Z,22.04
2016-07-13T10:37:26.335Z,21.68
2016-07-13T10:38:26.439Z,20.81
2016-07-13T10:39:26.356Z,20.68
2016-07-13T10:40:26.459Z,21.18
2016-07-13T10:41:26.486Z,21.9
2016-07-13T10:42:26.409Z,22.46
2016-07-13T10:43:26.438Z,22.82
2016-07-13T10:44:26.380Z,22.82
2016-07-13T10:45:26.440Z,22.63
2016-07-13T10:46:26.452Z,22.14
2016-07-13T10:47:26.476Z,21.85
2016-07-13T10:48:26.388Z,21.46
2016-07-13T10:49:26.314Z,21.4
2016-07-13T10:50:26.394Z,21.48
2016-07-13T10:51:26.456Z,22.05
2016-07-13T10:52:26.477Z,21.66
2016-07-13T10:53:26.457Z,21.46
2016-07-13T10:54:27.635Z,21.53
2016-07-13T10:55:26.338Z,21.89
2016-07-13T10:56:26.371Z,21.85
2016-07-13T10:57:26.504Z,21.86
2016-07-13T10:58:26.943Z,21.27
2016-07-13T10:59:27.437Z,21.8
2016-07-13T11:00:26.436Z,21.85
2016-07-13T11:01:26.374Z,21.51
2016-07-13T11:02:26.362Z,21.61
2016-07-13T11:03:26.421Z,22.44
2016-07-13T11:04:26.649Z,22.63
2016-07-13T11:05:26.470Z,23.01
2016-07-13T11:06:26.436Z,23.47
2016-07-13T11:07:26.448Z,23.72
2016-07-13T11:08:26.579Z,23.64
2016-07-13T11:09:26.509Z,23.34
2016-07-13T11:10:26.361Z,22.89
2016-07-13T11:11:26.448Z,22.84
2016-07-13T11:12:26.488Z,23.28
2016-07-13T11:13:26.512Z,23.34
2016-07-13T11:14:26.613Z,22.85
2016-07-13T11:15:26.635Z,22.64
2016-07-13T11:16:26.556Z,22.2
2016-07-13T11:17:26.400Z,21.97
2016-07-13T11:18:26.595Z,21.21
2016-07-13T11:19:26.400Z,20.66
2016-07-13T11:20:26.507Z,20.63
2016-07-13T11:21:26.602Z,20.74
2016-07-13T11:22:26.539Z,20.66
2016-07-13T11:23:26.551Z,20.54
2016-07-13T11:24:26.534Z,20.79
2016-07-13T11:25:26.492Z,20.67
2016-07-13T11:26:26.491Z,20.85
2016-07-13T11:27:26.578Z,21.08
2016-07-13T11:28:26.544Z,20.67
2016-07-13T11:29:26.575Z,20.93
2016-07-13T11:30:26.617Z,20.63
2016-07-13T11:31:26.542Z,20.42
2016-07-13T11:32:26.513Z,20.11
2016-07-13T11:33:26.513Z,20.12
2016-07-13T11:34:26.643Z,20.12
2016-07-13T11:35:26.517Z,19.97
2016-07-13T11:36:26.586Z,19.9
2016-07-13T11:37:26.640Z,20.04
2016-07-13T11:38:26.483Z,20.1
2016-07-13T11:39:26.721Z,20.01
2016-07-13T11:40:26.559Z,20.18
2016-07-13T11:41:26.616Z,20.01
2016-07-13T11:42:27.164Z,19.82
2016-07-13T11:43:26.528Z,19.71
2016-07-13T11:44:26.598Z,20.11
2016-07-13T11:45:26.583Z,20.6
2016-07-13T11:46:26.603Z,20.83
2016-07-13T11:47:26.505Z,21.16
2016-07-13T11:48:26.670Z,21.71
2016-07-13T11:49:26.570Z,21.83
2016-07-13T11:50:26.622Z,21.68
2016-07-13T11:51:26.684Z,21.36
2016-07-13T11:52:26.848Z,20.64
2016-07-13T11:53:38.730Z,20.61
2016-07-13T11:54:38.708Z,21.13
2016-07-13T11:55:39.399Z,21.58
2016-07-13T11:56:38.802Z,21.97
2016-07-13T11:57:39.490Z,21.7
2016-07-13T11:58:38.858Z,21.96
2016-07-13T11:59:38.770Z,22.23
2016-07-13T12:00:38.700Z,22.78
2016-07-13T12:01:38.732Z,21.94
2016-07-13T12:02:38.765Z,22.08
2016-07-13T12:03:38.735Z,22.22
2016-07-13T12:04:38.870Z,22.79
2016-07-13T12:05:38.701Z,21.66
2016-07-13T12:06:38.761Z,21.33
2016-07-13T12:07:38.858Z,21.21
2016-07-13T12:08:38.870Z,21.12
2016-07-13T12:09:38.944Z,21.37
2016-07-13T12:10:38.879Z,21.55
2016-07-13T12:11:38.842Z,22.05
2016-07-13T12:12:38.691Z,22.04
2016-07-13T12:13:38.722Z,22.02
2016-07-13T12:14:38.814Z,21.85
2016-07-13T12:15:38.748Z,21.48
2016-07-13T12:16:38.932Z,22.26
2016-07-13T12:17:38.918Z,22.29
2016-07-13T12:18:38.687Z,22.96
2016-07-13T12:19:39.475Z,23.34
2016-07-13T12:20:38.712Z,22.85
2016-07-13T12:21:38.703Z,21.96
2016-07-13T12:22:39.003Z,21.96
2016-07-13T12:23:38.712Z,22.02
2016-07-13T12:24:38.878Z,21.83
2016-07-13T12:25:38.708Z,22.02
2016-07-13T12:26:38.804Z,21.7
2016-07-13T12:27:38.893Z,21.33
2016-07-13T12:28:38.948Z,21.21
2016-07-13T12:29:38.797Z,21.13
2016-07-13T12:30:39.312Z,21.41
2016-07-13T12:31:38.894Z,21.68
2016-07-13T12:32:38.793Z,21.64
2016-07-13T12:33:38.972Z,21.61
2016-07-13T12:34:38.891Z,21.86
2016-07-13T12:35:38.901Z,22.12
2016-07-13T12:36:38.989Z,22.45
2016-07-13T12:37:39.198Z,22.52
2016-07-13T12:38:39.150Z,22.14
2016-07-13T12:39:39.218Z,22.09
2016-07-13T12:40:39.037Z,22.22
2016-07-13T12:41:39.212Z,22.49
2016-07-13T12:42:38.902Z,22.27
2016-07-13T12:43:38.865Z,22.2
2016-07-13T12:44:38.855Z,22.11
2016-07-13T12:45:38.832Z,22.18
2016-07-13T12:46:39.114Z,21.83
2016-07-13T12:47:38.992Z,21.61
2016-07-13T12:48:39.207Z,21.33
2016-07-13T12:49:38.752Z,21.56
2016-07-13T12:50:38.933Z,21.55
2016-07-13T12:51:38.890Z,21.22
2016-07-13T12:52:38.820Z,21.33
2016-07-13T12:53:38.856Z,21.83
2016-07-13T12:54:38.891Z,21.97
2016-07-13T12:55:39.070Z,21.94
2016-07-13T12:56:38.931Z,21.83